Time;durP1;ratioP1;P1;durP2;ratioP2;P2;SDS_P1;SDS_P2;PMS_P1;PMS_P2;Temp;Humidity;BMP_temperature;BMP_pressure;BME280_temperature;BME280_humidity;BME280_pressure;Samples;Min_cycle;Max_cycle;Signal;HPM_P1;HPM_P2
2022/06/04 00:00:47;;;;;;;5.17;4.67;;;;;;;12.65;81.80;101534.41;5094728;28;20031;-66
2022/06/04 00:03:13;;;;;;;7.05;5.47;;;;;;;12.64;81.55;101532.75;5094637;28;20062;-67
2022/06/04 00:05:42;;;;;;;5.73;5.00;;;;;;;12.62;82.28;101534.72;5094848;28;20475;-65
2022/06/04 00:08:09;;;;;;;6.90;5.80;;;;;;;12.65;81.49;101537.09;5094498;28;20035;-67
2022/06/04 00:16:10;;;;;;;7.70;5.37;;;;;;;12.52;81.54;101523.31;5094481;28;20566;-65
2022/06/04 00:18:38;;;;;;;6.97;5.27;;;;;;;12.58;81.79;101528.03;5094729;28;20044;-66
2022/06/04 00:21:04;;;;;;;8.57;5.60;;;;;;;12.59;81.75;101527.03;5094389;28;20040;-66
2022/06/04 00:23:30;;;;;;;7.13;5.47;;;;;;;12.54;81.76;101524.00;5093994;28;20367;-66
2022/06/04 00:25:58;;;;;;;6.10;5.07;;;;;;;12.42;81.79;101517.22;5094072;28;20085;-65
2022/06/04 00:28:25;;;;;;;6.75;6.07;;;;;;;12.41;81.99;101515.53;5094038;28;20380;-66
2022/06/04 00:30:52;;;;;;;7.27;6.53;;;;;;;12.42;82.01;101522.56;5093696;28;20032;-67
2022/06/04 00:33:17;;;;;;;7.50;5.47;;;;;;;12.31;82.93;101522.81;5093844;28;20024;-66
2022/06/04 00:35:45;;;;;;;6.20;5.30;;;;;;;12.21;83.07;101516.75;5094030;28;20036;-66
2022/06/04 00:38:14;;;;;;;6.50;5.68;;;;;;;12.14;83.35;101518.31;5094339;28;20085;-67
2022/06/04 00:41:07;;;;;;;8.20;6.47;;;;;;;12.10;83.48;101515.97;5093147;28;20036;-67
2022/06/04 00:43:56;;;;;;;8.93;6.83;;;;;;;12.03;84.13;101517.59;5094060;28;20123;-65
2022/06/04 00:46:59;;;;;;;9.57;7.10;;;;;;;11.98;84.67;101517.22;5093876;28;20068;-66
2022/06/04 00:49:25;;;;;;;7.63;5.70;;;;;;;11.90;84.66;101506.47;5093736;28;20047;-67
2022/06/04 00:51:52;;;;;;;7.17;5.93;;;;;;;11.85;84.96;101503.41;5093340;28;20040;-66
2022/06/04 00:54:19;;;;;;;8.17;6.13;;;;;;;11.79;84.78;101509.34;5093542;28;20036;-67
2022/06/04 00:57:03;;;;;;;7.70;6.90;;;;;;;11.81;85.35;101502.03;5093529;28;20027;-66
2022/06/04 01:00:06;;;;;;;10.97;7.30;;;;;;;11.82;85.66;101503.69;5093468;28;20464;-63
2022/06/04 01:02:52;;;;;;;7.10;6.40;;;;;;;11.90;85.86;101505.63;5093613;28;20118;-65
2022/06/04 01:05:37;;;;;;;8.33;6.03;;;;;;;12.02;85.61;101505.22;5093438;28;20078;-68
2022/06/04 01:08:34;;;;;;;7.10;6.27;;;;;;;12.17;84.93;101508.22;5093277;28;20528;-64
2022/06/04 01:11:22;;;;;;;7.63;6.30;;;;;;;12.23;85.03;101490.72;5093324;28;20075;-65
2022/06/04 01:14:06;;;;;;;9.48;6.80;;;;;;;12.32;85.01;101497.78;5093106;28;20052;-64
2022/06/04 01:16:42;;;;;;;7.47;6.20;;;;;;;12.34;84.74;101493.13;5093156;28;20043;-66
2022/06/04 01:19:46;;;;;;;6.87;5.90;;;;;;;12.39;85.05;101486.31;5093315;28;20071;-68
2022/06/04 01:22:31;;;;;;;8.20;6.00;;;;;;;12.44;84.55;101496.56;5093075;28;20040;-65
2022/06/04 01:25:31;;;;;;;8.27;6.40;;;;;;;12.46;83.70;101491.06;5092978;28;20171;-66
2022/06/04 01:27:56;;;;;;;7.00;6.30;;;;;;;12.43;83.73;101481.50;5092954;28;20031;-65
2022/06/04 01:30:27;;;;;;;7.57;5.73;;;;;;;12.50;83.34;101487.91;5092812;28;20032;-67
2022/06/04 01:33:14;;;;;;;7.60;6.30;;;;;;;12.58;83.54;101487.09;5093143;28;20039;-67
2022/06/04 01:35:52;;;;;;;7.57;6.13;;;;;;;12.57;83.44;101483.59;5092760;28;20475;-67
2022/06/04 01:38:33;;;;;;;7.97;6.47;;;;;;;12.62;82.69;101486.63;5092996;28;20044;-64
2022/06/04 01:41:03;;;;;;;7.23;6.10;;;;;;;12.65;83.71;101483.63;5093344;28;20356;-65
2022/06/04 01:43:35;;;;;;;6.57;5.77;;;;;;;12.70;82.73;101481.31;5091619;28;20036;-65
2022/06/04 01:46:09;;;;;;;6.53;5.80;;;;;;;12.77;82.90;101486.06;5093130;28;20044;-66
2022/06/04 01:48:40;;;;;;;8.40;6.60;;;;;;;12.83;82.49;101478.22;5093715;28;20036;-67
2022/06/04 01:51:08;;;;;;;6.53;5.83;;;;;;;12.93;82.14;101488.78;5093050;28;20063;-64
2022/06/04 01:53:37;;;;;;;6.45;5.75;;;;;;;12.89;81.82;101472.25;5092657;28;20544;-67
2022/06/04 01:56:09;;;;;;;6.70;5.53;;;;;;;12.93;81.70;101478.09;5092523;28;20043;-67
2022/06/04 01:58:45;;;;;;;5.50;5.00;;;;;;;12.93;81.05;101475.44;5092468;28;20032;-66
2022/06/04 02:01:15;;;;;;;5.43;4.87;;;;;;;12.86;79.88;101485.09;5092534;28;20028;-66
2022/06/04 02:03:54;;;;;;;5.03;4.53;;;;;;;12.84;79.63;101489.75;5093197;28;20085;-66
2022/06/04 02:06:32;;;;;;;6.20;4.40;;;;;;;12.85;78.99;101483.41;5092736;28;20032;-66
2022/06/04 02:09:10;;;;;;;8.05;4.65;;;;;;;12.85;78.71;101478.91;5092941;28;20495;-65
2022/06/04 02:11:36;;;;;;;7.33;5.23;;;;;;;12.88;79.00;101483.94;5092856;28;20050;-65
2022/06/04 02:14:06;;;;;;;5.33;4.80;;;;;;;12.83;78.33;101477.41;5092987;28;20286;-65
2022/06/04 02:16:43;;;;;;;6.97;5.10;;;;;;;12.84;78.90;101484.41;5092167;28;20063;-66
2022/06/04 02:19:09;;;;;;;6.93;4.70;;;;;;;12.74;78.38;101481.03;5091629;28;20048;-67
2022/06/04 02:21:35;;;;;;;6.33;5.20;;;;;;;12.61;79.16;101468.91;5091706;28;20035;-64
2022/06/04 02:24:03;;;;;;;5.60;5.10;;;;;;;12.69;78.56;101482.31;5092023;28;20065;-66
2022/06/04 02:26:29;;;;;;;5.35;4.60;;;;;;;12.66;78.83;101474.63;5090776;28;20090;-64
2022/06/04 02:28:58;;;;;;;6.83;5.20;;;;;;;12.64;78.98;101479.28;5090834;28;20043;-66
2022/06/04 02:31:33;;;;;;;7.13;4.73;;;;;;;12.63;79.76;101482.97;5091787;28;20071;-67
2022/06/04 02:34:11;;;;;;;7.97;5.50;;;;;;;12.57;80.20;101480.94;5092084;28;20035;-65
2022/06/04 02:36:48;;;;;;;7.20;5.67;;;;;;;12.50;80.90;101482.56;5092133;28;20064;-65
2022/06/04 02:39:23;;;;;;;7.30;5.60;;;;;;;12.46;80.48;101465.19;5092085;28;20036;-67
2022/06/04 02:41:56;;;;;;;6.97;5.77;;;;;;;12.51;80.02;101473.56;5091846;28;20530;-66
2022/06/04 02:44:30;;;;;;;6.77;5.83;;;;;;;12.58;80.27;101469.25;5093161;28;20470;-64
2022/06/04 02:47:10;;;;;;;5.87;5.23;;;;;;;12.64;80.67;101476.63;5099429;28;20032;-64
2022/06/04 02:49:39;;;;;;;5.87;5.33;;;;;;;12.76;80.00;101477.19;5096101;28;20036;-66
2022/06/04 02:52:07;;;;;;;7.93;5.73;;;;;;;12.70;79.26;101462.63;5093010;28;20032;-65
2022/06/04 02:54:38;;;;;;;;;;;;;;;12.79;79.32;101466.19;5092728;28;20035;-67
2022/06/04 02:57:08;;;;;;;8.63;5.50;;;;;;;12.69;79.41;101468.97;5092960;28;19915;-65
2022/06/04 02:59:35;;;;;;;7.50;5.37;;;;;;;12.66;79.46;101455.91;5091719;28;20070;-67
2022/06/04 03:02:03;;;;;;;6.67;5.47;;;;;;;12.74;79.77;101465.84;5091719;28;20577;-65
2022/06/04 03:04:38;;;;;;;8.90;5.45;;;;;;;12.76;79.04;101474.53;5092191;28;20036;-67
2022/06/04 03:07:06;;;;;;;13.27;5.90;;;;;;;12.75;79.68;101470.19;5091742;28;20040;-66
2022/06/04 03:09:32;;;;;;;7.30;5.70;;;;;;;12.76;79.17;101471.03;5091571;28;20058;-65
2022/06/04 03:11:57;;;;;;;6.27;5.40;;;;;;;12.74;79.30;101470.34;5091500;28;20329;-65
2022/06/04 03:14:24;;;;;;;6.67;5.33;;;;;;;12.66;78.92;101465.78;5091456;28;20094;-68
2022/06/04 03:16:50;;;;;;;9.47;6.07;;;;;;;12.65;79.39;101467.59;5091694;28;20152;-67
2022/06/04 03:19:16;;;;;;;6.63;5.93;;;;;;;12.61;78.91;101468.91;5092603;28;20040;-66
2022/06/04 03:21:42;;;;;;;6.80;5.33;;;;;;;12.54;79.40;101467.88;5091785;28;20043;-67
2022/06/04 03:24:09;;;;;;;9.40;6.20;;;;;;;12.54;78.90;101467.06;5092111;28;20475;-65
2022/06/04 03:26:36;;;;;;;9.07;5.87;;;;;;;12.52;78.78;101456.53;5091628;28;20039;-66
2022/06/04 03:29:02;;;;;;;6.60;5.53;;;;;;;12.57;79.88;101467.56;5091584;28;20028;-67
2022/06/04 03:31:28;;;;;;;8.30;6.00;;;;;;;12.59;78.68;101462.91;5094408;28;20430;-67
2022/06/04 03:33:56;;;;;;;8.40;5.93;;;;;;;12.56;79.55;101454.38;5095209;28;20119;-67
2022/06/04 03:36:25;;;;;;;8.15;6.60;;;;;;;12.71;79.44;101474.13;5094909;28;20468;-67
2022/06/04 03:38:54;;;;;;;6.68;5.47;;;;;;;12.76;78.96;101463.00;5094935;28;20058;-67
2022/06/04 03:41:19;;;;;;;6.23;5.57;;;;;;;12.81;78.32;101466.03;5094734;28;20443;-68
2022/06/04 03:43:47;;;;;;;6.60;5.53;;;;;;;12.81;77.96;101466.03;5094867;28;20028;-68
2022/06/04 03:46:13;;;;;;;6.78;5.50;;;;;;;12.75;78.41;101461.31;5094946;28;20036;-67
2022/06/04 03:48:39;;;;;;;6.90;5.73;;;;;;;12.82;78.38;101459.69;5094815;28;20384;-68
2022/06/04 03:51:05;;;;;;;5.90;4.90;;;;;;;12.85;77.85;101456.69;5094708;28;20039;-64
2022/06/04 03:53:30;;;;;;;6.40;4.63;;;;;;;12.80;77.95;101456.34;5093521;28;20023;-67
2022/06/04 03:55:56;;;;;;;8.33;5.63;;;;;;;12.85;77.76;101459.34;5094527;28;20088;-64
2022/06/04 03:58:22;;;;;;;8.13;5.20;;;;;;;12.98;77.52;101454.38;5094555;28;20046;-65
2022/06/04 04:00:48;;;;;;;8.07;5.70;;;;;;;13.14;76.85;101458.97;5099056;28;20047;-67
2022/06/04 04:03:17;;;;;;;8.30;5.20;;;;;;;13.19;76.82;101452.16;5100730;28;20040;-65
2022/06/04 04:05:48;;;;;;;5.43;4.77;;;;;;;13.31;76.22;101463.41;5098911;28;20032;-64
2022/06/04 04:08:15;;;;;;;9.93;5.50;;;;;;;13.34;76.05;101460.41;5095903;28;20168;-66
2022/06/04 04:10:43;;;;;;;7.83;5.10;;;;;;;13.35;75.60;101456.72;5095754;28;20089;-64
2022/06/04 04:13:11;;;;;;;6.85;5.10;;;;;;;13.44;75.71;101454.91;5094605;28;20055;-65
2022/06/04 04:15:38;;;;;;;6.33;5.10;;;;;;;13.46;75.52;101459.09;5094401;28;20043;-66
2022/06/04 04:18:05;;;;;;;7.57;5.80;;;;;;;13.39;75.62;101457.22;5094286;28;20402;-67
2022/06/04 04:20:33;;;;;;;5.87;5.03;;;;;;;13.45;75.67;101461.94;5094437;28;20118;-65
2022/06/04 04:23:00;;;;;;;6.67;5.97;;;;;;;13.38;75.40;101455.56;5093050;28;20036;-65
2022/06/04 04:25:29;;;;;;;7.17;5.50;;;;;;;13.31;75.83;101466.94;5094218;28;20066;-67
2022/06/04 04:27:56;;;;;;;6.67;4.80;;;;;;;13.25;75.85;101462.19;5094239;28;20040;-68
2022/06/04 04:30:25;;;;;;;8.53;5.23;;;;;;;13.18;76.42;101450.47;5093026;28;20028;-66
2022/06/04 04:32:52;;;;;;;9.20;5.63;;;;;;;13.22;76.51;101465.19;5092477;28;20043;-67
2022/06/04 04:35:24;;;;;;;9.23;6.00;;;;;;;13.24;76.43;101449.81;5093096;28;20028;-66
2022/06/04 04:37:50;;;;;;;6.20;5.57;;;;;;;13.19;76.69;101451.31;5094279;28;20047;-65
2022/06/04 04:40:18;;;;;;;5.97;5.23;;;;;;;13.24;76.77;101455.19;5093767;28;20043;-67
2022/06/04 04:42:45;;;;;;;7.60;5.60;;;;;;;13.25;76.12;101448.00;5093577;28;20039;-66
2022/06/04 04:45:11;;;;;;;10.10;6.50;;;;;;;13.30;75.87;101451.88;5093534;28;20127;-67
2022/06/04 04:47:42;;;;;;;8.47;5.90;;;;;;;13.42;75.90;101457.75;5093686;28;20122;-65
2022/06/04 04:50:13;;;;;;;6.37;5.30;;;;;;;13.45;76.02;101462.75;5093471;28;20035;-65
2022/06/04 04:52:39;;;;;;;7.80;5.33;;;;;;;13.43;75.86;101464.75;5093560;28;20053;-65
2022/06/04 04:55:05;;;;;;;6.87;5.50;;;;;;;13.45;75.73;101465.44;5092393;28;20024;-68
2022/06/04 04:57:30;;;;;;;6.60;5.90;;;;;;;13.46;76.13;101468.94;5093201;28;20142;-72
2022/06/04 04:59:56;;;;;;;8.47;5.87;;;;;;;13.37;75.71;101454.72;5092116;28;20461;-67
2022/06/04 05:02:21;;;;;;;6.73;5.47;;;;;;;13.34;76.41;101455.06;5093529;28;20552;-70
2022/06/04 05:04:47;;;;;;;7.90;6.23;;;;;;;13.42;76.41;101472.97;5093533;28;20036;-70
2022/06/04 05:07:12;;;;;;;7.13;6.27;;;;;;;13.44;76.23;101461.09;5093788;28;20061;-68
2022/06/04 05:09:39;;;;;;;9.67;7.20;;;;;;;13.49;75.96;101463.25;5093552;28;20482;-65
2022/06/04 05:12:07;;;;;;;6.20;5.60;;;;;;;13.60;75.53;101471.00;5093004;28;20028;-68
2022/06/04 05:14:34;;;;;;;7.37;5.60;;;;;;;13.69;75.43;101469.16;5093218;28;20487;-73
2022/06/04 05:17:03;;;;;;;7.27;5.87;;;;;;;13.54;75.56;101460.94;5093619;28;20123;-70
2022/06/04 05:19:29;;;;;;;8.63;6.00;;;;;;;13.44;75.72;101463.75;5093451;28;20039;-70
2022/06/04 05:21:56;;;;;;;7.70;5.87;;;;;;;13.46;75.91;101471.63;5095798;28;20044;-68
2022/06/04 05:24:31;;;;;;;15.03;6.60;;;;;;;13.53;75.34;101465.44;5092900;28;20047;-67
2022/06/04 05:26:57;;;;;;;7.10;5.20;;;;;;;13.59;75.27;101462.13;5092925;28;20430;-68
2022/06/04 05:29:24;;;;;;;6.37;5.20;;;;;;;13.58;75.24;101472.97;5093325;28;20043;-66
2022/06/04 05:31:52;;;;;;;9.23;6.00;;;;;;;13.49;75.81;101463.25;5092646;28;20515;-62
2022/06/04 05:34:19;;;;;;;7.68;5.35;;;;;;;13.35;75.72;101455.91;5092774;28;20040;-70
2022/06/04 05:36:45;;;;;;;7.53;5.83;;;;;;;13.31;76.46;101463.41;5093087;28;20044;-66
2022/06/04 05:39:12;;;;;;;6.13;5.50;;;;;;;13.24;77.02;101462.38;5092426;28;20027;-66
2022/06/04 05:41:38;;;;;;;6.87;5.70;;;;;;;13.18;77.46;101466.53;5092405;28;20067;-67
2022/06/04 05:44:04;;;;;;;6.70;5.43;;;;;;;13.16;78.29;101462.31;5092575;28;20496;-65
2022/06/04 05:46:30;;;;;;;6.30;5.70;;;;;;;13.20;80.00;101464.53;5091141;28;20040;-70
2022/06/04 05:48:55;;;;;;;8.47;6.20;;;;;;;13.13;80.06;101468.00;5081893;28;20519;-65
2022/06/04 05:51:24;;;;;;;8.40;7.07;;;;;;;13.00;81.36;101469.25;5091663;28;20042;-67
2022/06/04 05:53:50;;;;;;;5.90;4.82;;;;;;;12.89;81.79;101460.72;5093074;28;20466;-70
2022/06/04 05:56:25;;;;;;;9.53;6.83;;;;;;;12.95;82.26;101460.06;5092343;28;20036;-69
2022/06/04 05:58:52;;;;;;;7.03;6.33;;;;;;;13.14;81.99;101461.66;5092795;28;20036;-66
2022/06/04 06:01:20;;;;;;;9.57;5.97;;;;;;;13.49;80.84;101463.25;5092319;28;20066;-73
2022/06/04 06:03:46;;;;;;;6.15;5.55;;;;;;;13.88;79.61;101475.03;5092382;28;20028;-71
2022/06/04 06:06:13;;;;;;;7.83;6.73;;;;;;;14.15;78.48;101479.19;5092081;28;20040;-62
2022/06/04 06:08:39;;;;;;;7.23;6.30;;;;;;;14.22;77.39;101471.34;5092084;28;20119;-66
2022/06/04 06:11:11;;;;;;;7.17;6.43;;;;;;;14.23;77.27;101473.03;5092219;28;20193;-66
2022/06/04 06:13:42;;;;;;;6.90;5.90;;;;;;;14.17;77.66;101468.34;5092349;28;20138;-70
2022/06/04 06:16:14;;;;;;;9.98;6.68;;;;;;;14.14;77.46;101471.34;5090631;28;20518;-69
2022/06/04 06:18:40;;;;;;;7.30;6.60;;;;;;;14.01;77.04;101471.00;5091788;28;20044;-68
2022/06/04 06:21:16;;;;;;;10.27;7.60;;;;;;;13.92;77.42;101467.50;5091699;28;20043;-69
2022/06/04 06:23:43;;;;;;;9.67;6.97;;;;;;;13.81;77.32;101468.66;5092154;28;20097;-65
2022/06/04 06:26:14;;;;;;;9.60;6.30;;;;;;;13.91;78.18;101464.00;5092096;28;20047;-67
2022/06/04 06:28:42;;;;;;;7.93;7.13;;;;;;;14.12;77.71;101462.63;5090604;28;20032;-72
2022/06/04 06:31:09;;;;;;;8.80;6.60;;;;;;;14.69;76.04;101471.44;5091837;28;20036;-67
2022/06/04 06:33:35;;;;;;;7.20;6.40;;;;;;;15.16;73.42;101459.84;5091857;28;20078;-64
2022/06/04 06:36:03;;;;;;;9.10;8.20;;;;;;;15.23;72.20;101465.34;5090758;28;20040;-64
2022/06/04 06:38:29;;;;;;;7.10;6.43;;;;;;;15.12;73.00;101466.59;5092544;28;20122;-65
2022/06/04 06:40:56;;;;;;;8.10;6.73;;;;;;;15.29;73.01;101470.00;5091772;28;20143;-68
2022/06/04 06:43:31;;;;;;;6.93;6.13;;;;;;;15.32;72.11;101469.66;5091798;28;20038;-65
2022/06/04 06:46:12;;;;;;;7.03;6.33;;;;;;;15.01;72.41;101462.44;5091145;28;20258;-65
2022/06/04 06:48:40;;;;;;;9.57;6.67;;;;;;;14.90;73.84;101468.19;5091639;28;20032;-71
2022/06/04 06:51:27;;;;;;;8.88;6.45;;;;;;;15.05;73.79;101468.31;5091770;28;20032;-68
2022/06/04 06:53:56;;;;;;;7.80;6.60;;;;;;;15.11;72.52;101467.59;5091762;28;20047;-70
2022/06/04 06:56:23;;;;;;;;;;;;;;;15.29;72.55;101470.84;5091854;28;20040;-70
2022/06/04 06:58:49;;;;;;;8.80;6.68;;;;;;;15.28;70.39;101463.81;5091803;28;19916;-67
2022/06/04 07:01:15;;;;;;;6.93;6.30;;;;;;;15.26;71.31;101459.63;5092084;28;20508;-68
2022/06/04 07:03:41;;;;;;;8.53;7.73;;;;;;;15.34;72.08;101470.34;5092548;28;20078;-68
2022/06/04 07:06:10;;;;;;;7.70;6.07;;;;;;;15.43;70.71;101471.97;5095666;28;20375;-70
2022/06/04 07:08:37;;;;;;;9.02;7.10;;;;;;;15.27;71.19;101463.97;5096097;28;20042;-70
2022/06/04 07:11:03;;;;;;;8.43;6.53;;;;;;;15.11;71.19;101467.59;5096239;28;20432;-71
2022/06/04 07:13:30;;;;;;;9.83;7.03;;;;;;;15.25;72.01;101461.47;5095647;28;20063;-73
2022/06/04 07:15:56;;;;;;;7.10;6.40;;;;;;;15.32;70.77;101465.13;5096269;28;20450;-66
2022/06/04 07:18:23;;;;;;;8.30;6.93;;;;;;;15.36;70.56;101460.25;5093969;28;20055;-69
2022/06/04 07:20:48;;;;;;;10.43;8.10;;;;;;;15.47;70.59;101465.22;5095127;28;20469;-66
2022/06/04 07:23:15;;;;;;;8.67;7.77;;;;;;;15.65;70.17;101467.66;5095968;28;20059;-69
2022/06/04 07:25:44;;;;;;;8.32;6.78;;;;;;;15.65;69.00;101464.97;5094989;28;20036;-69
2022/06/04 07:28:11;;;;;;;7.03;6.25;;;;;;;15.69;67.93;101464.44;5094686;28;20077;-68
2022/06/04 07:30:37;;;;;;;6.80;6.17;;;;;;;15.76;67.76;101468.06;5095021;28;20039;-66
2022/06/04 07:33:03;;;;;;;7.40;6.50;;;;;;;15.76;67.26;101468.06;5095060;28;20032;-69
2022/06/04 07:35:28;;;;;;;7.47;6.20;;;;;;;15.84;67.91;101467.16;5094880;28;20032;-69
2022/06/04 07:37:54;;;;;;;8.97;6.07;;;;;;;16.00;66.98;101467.03;5095258;28;20086;-70
2022/06/04 07:40:19;;;;;;;11.23;8.10;;;;;;;16.09;67.22;101467.78;5096825;28;20040;-70
2022/06/04 07:42:48;;;;;;;7.90;6.40;;;;;;;16.17;65.76;101472.25;5094702;28;20036;-71
2022/06/04 07:45:13;;;;;;;12.02;6.25;;;;;;;16.32;66.07;101473.97;5094918;28;20063;-75
2022/06/04 07:47:41;;;;;;;8.17;6.77;;;;;;;16.36;65.98;101464.50;5094799;28;20074;-70
2022/06/04 07:50:12;;;;;;;8.27;7.17;;;;;;;16.47;65.08;101462.38;5094676;28;20036;-69
2022/06/04 07:52:38;;;;;;;9.80;6.43;;;;;;;16.32;65.26;101457.00;5094418;28;20040;-68
2022/06/04 07:55:08;;;;;;;9.33;7.07;;;;;;;16.47;64.88;101465.06;5097122;28;20395;-69
2022/06/04 07:57:34;;;;;;;11.63;5.97;;;;;;;16.57;64.47;101468.34;5094809;28;20119;-68
2022/06/04 07:59:59;;;;;;;8.27;6.80;;;;;;;16.80;64.15;101460.22;5094465;28;20617;-67
2022/06/04 08:02:25;;;;;;;9.80;6.97;;;;;;;16.90;63.04;101461.59;5094403;28;20040;-69
2022/06/04 08:04:54;;;;;;;8.23;6.40;;;;;;;17.12;63.27;101458.97;5094618;28;20154;-72
2022/06/04 08:07:20;;;;;;;;;;;;;;;17.52;62.79;101468.34;5094655;28;20165;-73
2022/06/04 08:09:48;;;;;;;8.83;6.90;;;;;;;17.65;62.31;101463.94;5094927;28;19959;-66
2022/06/04 08:12:14;;;;;;;8.13;6.75;;;;;;;17.25;60.51;101465.34;5093206;28;20127;-65
2022/06/04 08:14:41;;;;;;;7.53;6.37;;;;;;;16.73;61.38;101449.34;5084369;28;20085;-67
2022/06/04 08:17:06;;;;;;;8.40;6.53;;;;;;;16.49;62.37;101457.69;5073898;28;20055;-70
2022/06/04 08:19:34;;;;;;;9.70;6.63;;;;;;;16.13;63.30;101431.47;5073837;28;20040;-69
2022/06/04 08:22:04;;;;;;;7.18;5.85;;;;;;;16.01;63.37;101432.94;5078456;28;20028;-68
2022/06/04 08:24:33;;;;;;;8.50;6.60;;;;;;;16.13;64.40;101452.13;5092687;28;20044;-74
2022/06/04 08:27:00;;;;;;;8.00;5.83;;;;;;;16.10;62.98;101467.63;5094011;28;20052;-69
2022/06/04 08:29:30;;;;;;;7.20;6.50;;;;;;;15.97;62.29;101455.81;5093817;28;20032;-67
2022/06/04 08:31:56;;;;;;;13.67;6.33;;;;;;;16.34;64.95;101442.38;5093498;28;20783;-64
2022/06/04 08:34:22;;;;;;;12.77;6.70;;;;;;;16.66;63.57;101453.81;5090585;28;20074;-67
2022/06/04 08:36:48;;;;;;;11.00;6.30;;;;;;;16.90;62.54;101458.06;5091909;28;20131;-64
2022/06/04 08:39:13;;;;;;;9.43;6.57;;;;;;;17.01;62.61;101447.66;5093920;28;20075;-67
2022/06/04 08:41:39;;;;;;;10.67;7.00;;;;;;;17.08;61.53;101455.84;5093741;28;20036;-67
2022/06/04 08:44:18;;;;;;;10.60;6.67;;;;;;;17.10;61.09;101455.66;5089818;28;20062;-69
2022/06/04 08:46:47;;;;;;;7.10;6.27;;;;;;;17.35;60.62;101459.69;5086866;28;20499;-68
2022/06/04 08:49:14;;;;;;;;;;;;;;;17.71;59.88;101465.06;5086864;28;20043;-66
2022/06/04 08:51:43;;;;;;;9.05;7.07;;;;;;;17.88;59.82;101462.91;5091389;28;19923;-70
2022/06/04 08:59:57;;;;;;;6.15;5.55;;;;;;;18.46;56.62;101444.69;5076134;28;20043;-69
2022/06/04 09:02:34;;;;;;;6.35;5.65;;;;;;;18.37;56.11;101421.63;5082253;28;20044;-67
2022/06/04 09:05:07;;;;;;;7.18;5.28;;;;;;;18.99;55.61;101458.53;5081132;28;20039;-65
2022/06/04 09:07:44;;;;;;;7.00;4.97;;;;;;;18.93;54.83;101462.03;5093071;28;20031;-67
2022/06/04 09:10:18;;;;;;;5.55;4.75;;;;;;;18.68;55.34;101477.88;5087630;28;20394;-66
2022/06/04 09:13:03;;;;;;;6.90;4.65;;;;;;;18.60;56.86;101465.34;5092483;28;20494;-66
2022/06/04 09:15:42;;;;;;;5.85;4.45;;;;;;;18.63;55.60;101464.97;5089761;28;20384;-65
2022/06/04 09:18:21;;;;;;;5.53;4.95;;;;;;;18.52;56.11;101468.22;5094646;28;20020;-69
2022/06/04 09:20:49;;;;;;;7.95;5.32;;;;;;;18.50;54.71;101465.72;5092375;28;20040;-64
2022/06/04 09:23:22;;;;;;;7.07;5.28;;;;;;;18.57;55.75;101454.97;5094331;28;20432;-64
2022/06/04 09:26:12;;;;;;;5.80;5.03;;;;;;;18.40;55.67;101464.38;5090723;28;20089;-65
2022/06/04 09:28:48;;;;;;;12.88;5.88;;;;;;;17.75;57.18;101470.88;5091543;28;20518;-65
2022/06/04 09:31:27;;;;;;;5.00;4.50;;;;;;;17.36;58.51;101466.72;5092390;28;20454;-65
2022/06/04 09:33:56;;;;;;;8.18;5.47;;;;;;;17.14;59.07;101463.16;5092948;28;20024;-66
2022/06/04 09:36:26;;;;;;;6.87;6.17;;;;;;;17.02;60.53;101472.72;5092056;28;20606;-65
2022/06/04 09:39:04;;;;;;;12.67;5.70;;;;;;;17.15;59.56;101463.97;5077832;28;20147;-65
2022/06/04 09:41:39;;;;;;;6.70;5.18;;;;;;;17.46;58.44;101471.78;5092381;28;20165;-64
2022/06/04 09:44:15;;;;;;;5.60;5.00;;;;;;;17.79;57.33;101466.78;5091947;28;20062;-64
2022/06/04 09:46:46;;;;;;;9.43;4.87;;;;;;;18.07;56.26;101469.50;5086582;28;20039;-65
2022/06/04 09:49:39;;;;;;;10.48;7.90;;;;;;;18.38;57.79;101478.06;5082781;28;20035;-70
2022/06/04 09:52:36;;;;;;;7.85;5.90;;;;;;;18.21;56.77;101472.16;5086417;28;20039;-67
2022/06/04 09:55:15;;;;;;;10.07;6.30;;;;;;;17.83;57.83;101470.75;5088058;28;20028;-67
2022/06/04 09:57:41;;;;;;;10.93;7.70;;;;;;;17.63;58.82;101463.25;5088579;28;20127;-65
2022/06/04 10:00:31;;;;;;;9.67;7.40;;;;;;;17.74;59.70;101458.44;5092104;28;20118;-62
2022/06/04 10:03:09;;;;;;;10.77;6.23;;;;;;;17.78;59.83;101479.41;5088585;28;20070;-65
2022/06/04 10:05:35;;;;;;;7.70;6.40;;;;;;;17.64;61.25;101469.50;5092159;28;20032;-66
2022/06/04 10:08:11;;;;;;;13.87;6.63;;;;;;;17.54;61.73;101459.03;5077643;28;20063;-63
2022/06/04 10:10:44;;;;;;;8.40;6.60;;;;;;;17.59;61.94;101477.31;5077893;28;20028;-69
2022/06/04 10:13:46;;;;;;;10.40;6.50;;;;;;;17.32;61.09;101481.56;5082551;28;20052;-69
2022/06/04 10:16:35;;;;;;;9.13;6.97;;;;;;;17.30;60.90;101478.22;5091859;28;20105;-71
2022/06/04 10:19:13;;;;;;;8.23;5.90;;;;;;;17.15;60.38;101466.69;5092141;28;20393;-69
2022/06/04 10:21:41;;;;;;;10.13;6.15;;;;;;;17.35;60.88;101478.53;5092376;28;20040;-71
2022/06/04 10:24:23;;;;;;;8.18;5.95;;;;;;;17.47;61.27;101468.06;5090033;28;20036;-68
2022/06/04 10:26:58;;;;;;;6.47;5.47;;;;;;;17.32;60.68;101477.00;5072670;28;20048;-67
2022/06/04 10:29:26;;;;;;;7.07;5.63;;;;;;;17.29;61.39;101473.88;5087497;28;20045;-68
2022/06/04 10:32:01;;;;;;;7.47;6.67;;;;;;;17.26;60.91;101477.78;5074367;28;20043;-75
2022/06/04 10:34:51;;;;;;;9.93;7.27;;;;;;;17.34;60.64;101471.44;5071806;28;20518;-69
2022/06/04 10:37:29;;;;;;;8.37;6.73;;;;;;;17.38;61.25;101472.75;5086704;28;20039;-68
2022/06/04 10:40:16;;;;;;;8.65;6.57;;;;;;;17.43;60.06;101473.00;5080377;28;20509;-70
2022/06/04 10:42:49;;;;;;;12.90;7.07;;;;;;;17.44;59.48;101461.22;5085644;28;20039;-74
2022/06/04 10:45:29;;;;;;;9.17;6.20;;;;;;;17.52;59.40;101476.41;5091923;28;20051;-71
2022/06/04 10:48:01;;;;;;;7.87;6.70;;;;;;;17.54;59.30;101475.19;5090337;28;20125;-72
2022/06/04 10:51:25;;;;;;;7.90;6.67;;;;;;;17.65;59.83;101468.50;5094853;28;20032;-73
2022/06/04 10:53:54;;;;;;;13.37;6.27;;;;;;;18.00;59.91;101480.25;5076054;28;20043;-72
2022/06/04 10:56:35;;;;;;;9.93;6.00;;;;;;;17.97;58.73;101485.19;5075543;28;20044;-69
2022/06/04 10:59:14;;;;;;;9.48;6.65;;;;;;;17.94;59.42;101481.88;5080206;28;20469;-68
2022/06/04 11:01:52;;;;;;;9.73;7.63;;;;;;;18.06;59.16;101484.03;5095696;28;20063;-71
2022/06/04 11:04:46;;;;;;;8.02;6.30;;;;;;;17.87;58.65;101496.28;5095947;28;20024;-68
2022/06/04 11:07:24;;;;;;;14.77;7.37;;;;;;;17.61;60.04;101491.41;5097199;28;20437;-73
2022/06/04 11:09:51;;;;;;;9.37;7.00;;;;;;;17.46;60.47;101480.72;5093376;28;20469;-72
2022/06/04 11:12:40;;;;;;;8.10;7.13;;;;;;;17.47;60.81;101482.38;5090219;28;20408;-73
2022/06/04 11:15:12;;;;;;;;;;;;;;;17.44;60.91;101480.06;5089429;28;20055;-68
2022/06/04 11:17:46;;;;;;;9.20;8.27;;;;;;;17.37;61.68;101472.94;5075326;28;19920;-75
2022/06/04 11:20:29;;;;;;;11.17;7.53;;;;;;;17.30;61.83;101478.22;5074715;28;20039;-73
2022/06/04 11:23:04;;;;;;;10.90;8.93;;;;;;;17.30;61.53;101459.38;5074753;28;20029;-71
2022/06/04 11:25:34;;;;;;;10.20;8.90;;;;;;;17.54;61.31;101468.97;5075102;28;20506;-72
2022/06/04 11:28:03;;;;;;;9.07;7.17;;;;;;;17.70;60.63;101474.16;5075803;28;20040;-71
2022/06/04 11:30:46;;;;;;;9.37;7.77;;;;;;;17.57;59.84;101469.41;5075274;28;20048;-72
2022/06/04 11:33:49;;;;;;;7.60;6.73;;;;;;;17.52;61.28;101482.63;5074865;28;20059;-65
2022/06/04 11:36:24;;;;;;;14.00;9.20;;;;;;;17.42;61.38;101482.13;5074758;28;20518;-69
2022/06/04 11:39:11;;;;;;;11.13;8.27;;;;;;;17.45;61.92;101480.91;5074863;28;20044;-68
2022/06/04 11:41:53;;;;;;;11.85;8.30;;;;;;;17.34;61.20;101483.03;5074534;28;20044;-67
2022/06/04 11:44:28;;;;;;;9.57;7.80;;;;;;;17.19;61.93;101486.81;5076319;28;20110;-74
2022/06/04 11:47:02;;;;;;;9.53;7.60;;;;;;;17.03;61.42;101472.53;5074536;28;20044;-70
2022/06/04 11:49:40;;;;;;;9.23;7.93;;;;;;;16.94;61.67;101479.03;5075685;28;20036;-72
2022/06/04 11:52:27;;;;;;;11.75;6.95;;;;;;;17.10;60.96;101475.31;5074460;28;20040;-71
2022/06/04 11:55:25;;;;;;;8.73;7.87;;;;;;;17.32;60.68;101489.63;5073666;28;20036;-75
2022/06/04 11:58:00;;;;;;;;;;;;;;;17.20;60.61;101472.31;5075307;28;20131;-72
2022/06/04 12:00:39;;;;;;;8.83;7.80;;;;;;;16.90;61.77;101466.97;5075430;28;19923;-71